createdAt,value
2018-04-14T00:01:11.144Z,22.00
2018-04-14T00:03:40.247Z,18.00
2018-04-14T00:06:09.552Z,23.70
2018-04-14T00:08:38.803Z,23.23
2018-04-14T00:11:08.003Z,18.97
2018-04-14T00:13:37.077Z,20.63
2018-04-14T00:16:06.139Z,20.17
2018-04-14T00:18:35.251Z,22.30
2018-04-14T00:21:04.384Z,20.47
2018-04-14T00:23:33.344Z,23.40
2018-04-14T00:26:02.479Z,23.10
2018-04-14T00:28:31.765Z,21.10
2018-04-14T00:31:00.879Z,23.80
2018-04-14T00:33:30.125Z,25.03
2018-04-14T00:35:59.181Z,21.10
2018-04-14T00:38:28.343Z,26.43
2018-04-14T00:40:57.611Z,33.03
2018-04-14T00:43:26.687Z,36.23
2018-04-14T00:45:55.868Z,27.33
2018-04-14T00:48:25.000Z,27.70
2018-04-14T00:50:54.288Z,28.20
2018-04-14T00:53:34.587Z,21.70
2018-04-14T00:56:03.591Z,25.63
2018-04-14T00:58:32.595Z,28.50
2018-04-14T01:01:01.606Z,28.13
2018-04-14T01:03:31.543Z,24.83
2018-04-14T01:06:00.606Z,22.03
2018-04-14T01:08:30.036Z,25.33
2018-04-14T01:10:59.091Z,30.07
2018-04-14T01:13:28.324Z,24.77
2018-04-14T01:15:57.499Z,24.30
2018-04-14T01:18:26.911Z,27.37
2018-04-14T01:20:56.061Z,28.17
2018-04-14T01:23:25.188Z,26.10
2018-04-14T01:25:54.402Z,22.57
2018-04-14T01:28:23.392Z,24.97
2018-04-14T01:30:52.341Z,23.13
2018-04-14T01:33:21.336Z,22.93
2018-04-14T01:35:50.331Z,18.33
2018-04-14T01:38:19.559Z,23.63
2018-04-14T01:40:48.625Z,41.60
2018-04-14T01:43:17.755Z,30.13
2018-04-14T01:45:46.815Z,24.20
2018-04-14T01:48:16.151Z,39.17
2018-04-14T01:50:45.200Z,36.50
2018-04-14T01:53:14.141Z,30.67
2018-04-14T01:55:43.338Z,27.83
2018-04-14T01:58:12.705Z,30.23
2018-04-14T02:00:41.895Z,46.50
2018-04-14T02:03:10.992Z,25.57
2018-04-14T02:05:40.291Z,46.17
2018-04-14T02:08:09.453Z,29.07
2018-04-14T02:10:38.496Z,43.20
2018-04-14T02:13:07.608Z,34.03
2018-04-14T02:15:36.701Z,17.83
2018-04-14T02:18:05.876Z,23.60
2018-04-14T02:20:35.077Z,32.33
2018-04-14T02:23:04.045Z,46.67
2018-04-14T02:25:33.077Z,20.80
2018-04-14T02:28:02.207Z,18.60
2018-04-14T02:30:31.212Z,18.40
2018-04-14T02:33:00.477Z,23.37
2018-04-14T02:35:29.960Z,16.80
2018-04-14T02:37:59.057Z,18.20
2018-04-14T02:40:28.292Z,39.43
2018-04-14T02:42:57.428Z,36.30
2018-04-14T02:45:26.444Z,16.93
2018-04-14T02:47:55.452Z,16.60
2018-04-14T02:50:24.645Z,21.97
2018-04-14T02:52:53.753Z,24.80
2018-04-14T02:55:22.972Z,26.07
2018-04-14T02:57:52.135Z,34.53
2018-04-14T03:00:21.237Z,18.30
2018-04-14T03:02:50.320Z,22.67
2018-04-14T03:05:19.373Z,16.60
2018-04-14T03:07:48.570Z,25.63
2018-04-14T03:10:17.733Z,18.83
2018-04-14T03:12:46.673Z,19.17
2018-04-14T03:15:15.757Z,18.33
2018-04-14T03:17:44.807Z,19.70
2018-04-14T03:20:14.144Z,16.60
2018-04-14T03:22:43.188Z,14.47
2018-04-14T03:25:12.323Z,16.30
2018-04-14T03:27:41.844Z,14.10
2018-04-14T03:30:11.237Z,15.27
2018-04-14T03:32:40.299Z,14.60
2018-04-14T03:35:09.636Z,17.77
2018-04-14T03:37:38.695Z,17.30
2018-04-14T03:40:07.929Z,13.50
2018-04-14T03:42:37.184Z,15.17
2018-04-14T03:45:06.389Z,15.83
2018-04-14T03:47:35.644Z,17.67
2018-04-14T03:50:05.177Z,15.67
2018-04-14T03:52:34.451Z,15.23
2018-04-14T03:55:04.160Z,15.40
2018-04-14T03:57:33.300Z,16.93
2018-04-14T04:00:02.425Z,15.80
2018-04-14T04:02:31.492Z,22.63
2018-04-14T04:05:00.747Z,23.30
2018-04-14T04:07:29.797Z,32.90
2018-04-14T04:09:58.991Z,21.77
2018-04-14T04:12:28.114Z,36.83
2018-04-14T04:14:57.053Z,23.43
2018-04-14T04:17:26.207Z,44.00
2018-04-14T04:20:06.849Z,14.27
2018-04-14T04:22:47.172Z,20.97
2018-04-14T04:25:41.756Z,18.53
2018-04-14T04:28:10.484Z,15.07
2018-04-14T04:30:39.059Z,14.00
2018-04-14T04:33:07.688Z,17.80
2018-04-14T04:35:36.330Z,13.03
2018-04-14T04:38:04.938Z,23.97
2018-04-14T04:40:33.499Z,18.53
2018-04-14T04:43:02.148Z,10.10
2018-04-14T04:45:30.773Z,10.77
2018-04-14T04:47:59.512Z,9.67
2018-04-14T04:50:28.147Z,11.23
2018-04-14T04:52:56.941Z,21.77
2018-04-14T04:55:25.507Z,11.43
2018-04-14T04:57:54.114Z,11.90
2018-04-14T05:00:22.907Z,10.70
2018-04-14T05:02:51.524Z,18.57
2018-04-14T05:05:20.117Z,25.40
2018-04-14T05:07:48.800Z,14.37
2018-04-14T05:10:17.371Z,12.77
2018-04-14T05:12:46.016Z,14.37
2018-04-14T05:15:14.644Z,44.47
2018-04-14T05:17:43.284Z,14.23
2018-04-14T05:20:12.045Z,26.80
2018-04-14T05:22:40.717Z,24.03
2018-04-14T05:25:09.301Z,24.40
2018-04-14T05:27:38.030Z,21.33
2018-04-14T05:30:06.671Z,21.30
2018-04-14T05:32:35.314Z,29.10
2018-04-14T05:35:03.957Z,22.50
2018-04-14T05:37:32.602Z,14.03
2018-04-14T05:40:01.173Z,17.27
2018-04-14T05:42:29.819Z,14.60
2018-04-14T05:44:58.437Z,17.23
2018-04-14T05:47:27.063Z,19.17
2018-04-14T05:49:55.720Z,15.33
2018-04-14T05:52:24.385Z,21.17
2018-04-14T05:54:53.068Z,21.50
2018-04-14T05:57:21.725Z,21.97
2018-04-14T05:59:50.453Z,17.07
2018-04-14T06:02:19.066Z,17.27
2018-04-14T06:04:47.712Z,26.93
2018-04-14T06:07:16.360Z,19.73
2018-04-14T06:09:44.949Z,19.77
2018-04-14T06:12:13.530Z,19.77
2018-04-14T06:14:42.110Z,21.73
2018-04-14T06:17:10.700Z,17.80
2018-04-14T06:19:39.433Z,14.03
2018-04-14T06:22:08.142Z,17.83
2018-04-14T06:24:36.730Z,16.60
2018-04-14T06:27:05.338Z,16.57
2018-04-14T06:29:33.960Z,11.67
2018-04-14T06:32:02.610Z,14.90
2018-04-14T06:34:31.390Z,10.30
2018-04-14T06:37:00.035Z,10.87
2018-04-14T06:39:28.621Z,11.43
2018-04-14T06:41:57.247Z,13.50
2018-04-14T06:44:25.935Z,10.83
2018-04-14T06:46:54.781Z,11.13
2018-04-14T06:49:23.405Z,12.90
2018-04-14T06:51:52.021Z,11.03
2018-04-14T06:54:20.776Z,13.70
2018-04-14T06:56:49.360Z,12.47
2018-04-14T06:59:17.919Z,16.03
2018-04-14T07:01:46.657Z,10.87
2018-04-14T07:04:15.260Z,11.13
2018-04-14T07:06:43.847Z,9.37
2018-04-14T07:09:12.493Z,15.67
2018-04-14T07:11:41.124Z,11.60
2018-04-14T07:14:09.769Z,11.30
2018-04-14T07:16:38.445Z,10.83
2018-04-14T07:19:07.387Z,10.00
2018-04-14T07:21:35.908Z,8.93
2018-04-14T07:24:04.665Z,10.33
2018-04-14T07:26:33.198Z,11.03
2018-04-14T07:29:02.072Z,10.93
2018-04-14T07:31:30.735Z,13.40
2018-04-14T07:33:59.300Z,11.43
2018-04-14T07:36:27.944Z,10.17
2018-04-14T07:38:56.473Z,9.80
2018-04-14T07:41:25.070Z,9.87
2018-04-14T07:43:53.697Z,9.97
2018-04-14T07:46:22.288Z,10.77
2018-04-14T07:48:50.904Z,10.20
2018-04-14T07:51:19.635Z,9.87
2018-04-14T07:53:48.593Z,12.40
2018-04-14T07:56:17.168Z,10.70
2018-04-14T07:58:45.817Z,10.87
2018-04-14T08:01:14.449Z,12.80
2018-04-14T08:03:43.170Z,9.33
2018-04-14T08:06:11.899Z,9.67
2018-04-14T08:08:40.617Z,12.93
2018-04-14T08:11:09.295Z,9.20
2018-04-14T08:13:38.052Z,7.67
2018-04-14T08:16:06.677Z,7.93
2018-04-14T08:18:35.400Z,7.93
2018-04-14T08:21:04.079Z,7.83
2018-04-14T08:23:32.784Z,9.30
2018-04-14T08:26:01.322Z,8.27
2018-04-14T08:28:30.361Z,8.80
2018-04-14T08:30:59.145Z,7.53
2018-04-14T08:33:27.775Z,9.03
2018-04-14T08:35:56.415Z,7.50
2018-04-14T08:38:25.117Z,8.60
2018-04-14T08:40:53.792Z,7.57
2018-04-14T08:43:22.420Z,9.33
2018-04-14T08:45:51.071Z,8.10
2018-04-14T08:48:19.813Z,8.07
2018-04-14T08:50:48.560Z,8.90
2018-04-14T08:53:17.277Z,9.43
2018-04-14T08:55:45.910Z,9.57
2018-04-14T08:58:14.599Z,11.90
2018-04-14T09:00:43.223Z,8.77
2018-04-14T09:03:11.909Z,12.03
2018-04-14T09:05:40.495Z,9.93
2018-04-14T09:08:09.232Z,8.20
2018-04-14T09:10:37.877Z,9.80
2018-04-14T09:13:06.656Z,8.87
2018-04-14T09:15:35.284Z,10.87
2018-04-14T09:18:04.503Z,8.83
2018-04-14T09:20:33.672Z,7.80
2018-04-14T09:23:02.896Z,6.40
2018-04-14T09:25:31.961Z,6.33
2018-04-14T09:28:01.178Z,6.47
2018-04-14T09:30:30.333Z,6.77
2018-04-14T09:32:59.383Z,6.50
2018-04-14T09:35:28.430Z,7.57
2018-04-14T09:37:57.619Z,11.73
2018-04-14T09:40:26.722Z,10.87
2018-04-14T09:42:55.868Z,8.43
2018-04-14T09:45:25.047Z,7.93
2018-04-14T09:47:54.173Z,7.10
2018-04-14T09:50:23.263Z,9.03
2018-04-14T09:52:52.400Z,8.03
2018-04-14T09:55:21.344Z,8.33
2018-04-14T09:57:50.449Z,7.50
2018-04-14T10:00:25.417Z,10.00
2018-04-14T10:03:00.710Z,6.57
2018-04-14T10:05:29.864Z,6.60
2018-04-14T10:07:58.960Z,6.73
2018-04-14T10:10:28.128Z,7.07
2018-04-14T10:12:57.356Z,9.30
2018-04-14T10:15:26.617Z,8.93
2018-04-14T10:17:55.599Z,8.47
2018-04-14T10:20:24.743Z,8.83
2018-04-14T10:22:53.940Z,7.63
2018-04-14T10:25:23.102Z,7.90
2018-04-14T10:27:52.239Z,5.17
2018-04-14T10:30:21.397Z,5.97
2018-04-14T10:32:50.492Z,5.27
2018-04-14T10:35:19.515Z,8.20
2018-04-14T10:37:48.674Z,5.60
2018-04-14T10:40:17.681Z,7.30
2018-04-14T10:42:46.756Z,5.70
2018-04-14T10:45:15.817Z,5.73
2018-04-14T10:47:44.839Z,5.20
2018-04-14T10:50:13.841Z,5.10
2018-04-14T10:52:43.039Z,5.63
2018-04-14T10:55:12.235Z,5.90
2018-04-14T10:57:41.503Z,6.30
2018-04-14T11:00:10.531Z,6.20
2018-04-14T11:02:39.600Z,6.10
2018-04-14T11:05:08.868Z,5.73
2018-04-14T11:07:37.991Z,5.93
2018-04-14T11:10:07.129Z,6.70
2018-04-14T11:12:36.283Z,7.73
2018-04-14T11:15:05.540Z,9.60
2018-04-14T11:17:34.503Z,8.30
2018-04-14T11:20:03.686Z,7.77
2018-04-14T11:22:32.829Z,6.93
2018-04-14T11:25:01.996Z,5.90
2018-04-14T11:27:31.122Z,8.00
2018-04-14T11:30:00.234Z,7.07
2018-04-14T11:32:29.623Z,6.10
2018-04-14T11:34:58.692Z,8.30
2018-04-14T11:37:27.771Z,6.10
2018-04-14T11:39:57.008Z,5.97
2018-04-14T11:42:26.217Z,6.10
2018-04-14T11:44:55.352Z,8.87
2018-04-14T11:47:25.078Z,7.30
2018-04-14T11:49:54.179Z,6.97
2018-04-14T11:52:23.356Z,6.80
2018-04-14T11:54:52.701Z,8.37
2018-04-14T11:57:21.810Z,7.07
2018-04-14T11:59:50.800Z,9.67
2018-04-14T12:02:20.106Z,7.97
2018-04-14T12:04:49.332Z,7.90
2018-04-14T12:07:18.688Z,8.13
2018-04-14T12:09:47.812Z,8.17
2018-04-14T12:12:16.765Z,8.87
2018-04-14T12:14:45.901Z,9.20
2018-04-14T12:17:14.924Z,10.60
2018-04-14T12:19:44.193Z,9.33
2018-04-14T12:22:13.161Z,11.13
2018-04-14T12:24:42.284Z,8.70
2018-04-14T12:27:11.433Z,9.73
2018-04-14T12:29:40.867Z,8.80
2018-04-14T12:32:10.034Z,7.83
2018-04-14T12:34:39.203Z,8.33
2018-04-14T12:37:08.459Z,7.10
2018-04-14T12:39:38.048Z,7.27
2018-04-14T12:42:06.993Z,7.87
2018-04-14T12:44:36.135Z,8.90
2018-04-14T12:47:05.484Z,12.00
2018-04-14T12:49:35.092Z,7.13
2018-04-14T12:52:04.251Z,7.93
2018-04-14T12:54:33.476Z,7.90
2018-04-14T12:57:02.585Z,6.73
2018-04-14T12:59:31.626Z,8.63
2018-04-14T13:02:00.821Z,7.40
2018-04-14T13:04:30.005Z,9.70
2018-04-14T13:06:59.117Z,10.43
2018-04-14T13:09:28.370Z,8.63
2018-04-14T13:11:57.504Z,9.80
2018-04-14T13:14:26.541Z,9.40
2018-04-14T13:16:56.416Z,8.37
2018-04-14T13:19:25.409Z,8.50
2018-04-14T13:21:54.608Z,7.50
2018-04-14T13:24:23.748Z,8.87
2018-04-14T13:26:52.913Z,7.77
2018-04-14T13:29:21.907Z,11.20
2018-04-14T13:31:50.942Z,8.87
2018-04-14T13:34:20.254Z,8.00
2018-04-14T13:36:49.345Z,9.70
2018-04-14T13:39:18.494Z,9.90
2018-04-14T13:41:47.755Z,8.57
2018-04-14T13:44:16.976Z,10.80
2018-04-14T13:46:46.263Z,10.13
2018-04-14T13:49:15.461Z,9.73
2018-04-14T13:51:45.572Z,11.07
2018-04-14T13:54:14.739Z,11.50
2018-04-14T13:56:43.767Z,11.43
2018-04-14T13:59:12.828Z,9.60
2018-04-14T14:01:41.992Z,9.27
2018-04-14T14:04:11.137Z,7.47
2018-04-14T14:06:40.283Z,8.00
2018-04-14T14:09:09.497Z,9.20
2018-04-14T14:11:38.636Z,7.57
2018-04-14T14:14:08.313Z,8.13
2018-04-14T14:16:37.535Z,8.80
2018-04-14T14:19:06.597Z,6.23
2018-04-14T14:21:35.843Z,11.97
2018-04-14T14:24:04.960Z,6.07
2018-04-14T14:26:34.076Z,8.47
2018-04-14T14:29:03.285Z,6.40
2018-04-14T14:31:32.475Z,6.40
2018-04-14T14:34:01.568Z,7.23
2018-04-14T14:36:30.672Z,6.67
2018-04-14T14:39:00.497Z,6.97
2018-04-14T14:41:29.612Z,5.93
2018-04-14T14:43:58.674Z,7.30
2018-04-14T14:46:27.972Z,7.30
2018-04-14T14:48:56.967Z,6.80
2018-04-14T14:51:26.676Z,6.03
2018-04-14T14:53:55.832Z,6.30
2018-04-14T14:56:24.976Z,5.47
2018-04-14T14:58:54.220Z,6.13
2018-04-14T15:01:23.296Z,6.87
2018-04-14T15:03:52.572Z,7.93
2018-04-14T15:06:21.718Z,8.10
2018-04-14T15:08:50.917Z,9.07
2018-04-14T15:11:19.956Z,10.93
2018-04-14T15:13:49.256Z,10.57
2018-04-14T15:16:18.499Z,8.00
2018-04-14T15:18:47.565Z,8.53
2018-04-14T15:21:16.567Z,9.50
2018-04-14T15:23:45.791Z,9.50
2018-04-14T15:26:14.826Z,11.37
2018-04-14T15:28:43.808Z,12.03
2018-04-14T15:31:12.887Z,10.43
2018-04-14T15:33:42.082Z,10.63
2018-04-14T15:36:11.235Z,10.73
2018-04-14T15:38:40.572Z,11.53
2018-04-14T15:41:09.593Z,10.87
2018-04-14T15:43:38.572Z,12.10
2018-04-14T15:46:07.975Z,13.33
2018-04-14T15:48:37.011Z,13.07
2018-04-14T15:51:06.375Z,14.17
2018-04-14T15:53:35.572Z,15.43
2018-04-14T15:56:04.727Z,18.53
2018-04-14T15:58:33.728Z,16.10
2018-04-14T16:01:02.917Z,18.77
2018-04-14T16:03:32.113Z,19.27
2018-04-14T16:06:01.250Z,24.40
2018-04-14T16:08:30.395Z,20.30
2018-04-14T16:10:59.651Z,22.80
2018-04-14T16:13:28.692Z,25.07
2018-04-14T16:15:58.013Z,29.97
2018-04-14T16:18:27.350Z,33.90
2018-04-14T16:20:56.500Z,33.47
2018-04-14T16:23:25.858Z,39.80
2018-04-14T16:25:55.098Z,35.90
2018-04-14T16:28:24.188Z,37.27
2018-04-14T16:30:53.236Z,39.77
2018-04-14T16:33:22.797Z,39.80
2018-04-14T16:35:51.768Z,45.07
2018-04-14T16:38:20.776Z,50.10
2018-04-14T16:40:49.827Z,42.83
2018-04-14T16:43:19.080Z,43.00
2018-04-14T16:45:48.169Z,51.57
2018-04-14T16:48:17.365Z,53.47
2018-04-14T16:50:46.626Z,53.80
2018-04-14T16:53:15.771Z,60.53
2018-04-14T16:55:44.861Z,48.80
2018-04-14T16:58:14.101Z,49.40
2018-04-14T17:00:43.173Z,50.93
2018-04-14T17:03:12.236Z,57.00
2018-04-14T17:05:41.305Z,49.67
2018-04-14T17:08:10.340Z,48.00
2018-04-14T17:10:39.640Z,48.67
2018-04-14T17:13:08.824Z,48.60
2018-04-14T17:15:38.547Z,49.97
2018-04-14T17:18:07.748Z,54.50
2018-04-14T17:20:37.006Z,49.43
2018-04-14T17:23:06.203Z,63.60
2018-04-14T17:25:35.270Z,52.30
2018-04-14T17:28:04.540Z,58.77
2018-04-14T17:30:33.597Z,58.23
2018-04-14T17:33:02.772Z,71.17
2018-04-14T17:35:31.888Z,53.57
2018-04-14T17:38:01.017Z,60.30
2018-04-14T17:40:30.244Z,57.80
2018-04-14T17:42:59.319Z,54.80
2018-04-14T17:45:28.474Z,57.87
2018-04-14T17:47:57.529Z,55.40
2018-04-14T17:50:26.772Z,61.80
2018-04-14T17:52:55.911Z,55.03
2018-04-14T17:55:25.010Z,51.67
2018-04-14T17:57:54.251Z,56.00
2018-04-14T18:00:23.520Z,50.50
2018-04-14T18:02:52.740Z,54.97
2018-04-14T18:05:22.069Z,54.93
2018-04-14T18:07:51.244Z,57.13
2018-04-14T18:10:20.404Z,53.03
2018-04-14T18:12:49.499Z,56.30
2018-04-14T18:15:18.596Z,57.10
2018-04-14T18:17:47.592Z,56.17
2018-04-14T18:20:16.760Z,53.53
2018-04-14T18:22:45.840Z,56.47
2018-04-14T18:25:15.107Z,52.80
2018-04-14T18:27:44.394Z,49.40
2018-04-14T18:30:13.531Z,53.30
2018-04-14T18:32:42.600Z,57.20
2018-04-14T18:35:11.793Z,48.47
2018-04-14T18:37:40.960Z,52.60
2018-04-14T18:40:10.213Z,51.97
2018-04-14T18:42:39.411Z,52.80
2018-04-14T18:45:08.712Z,54.37
2018-04-14T18:47:37.764Z,54.57
2018-04-14T18:50:06.871Z,43.73
2018-04-14T18:52:36.409Z,45.47
2018-04-14T18:55:05.464Z,46.80
2018-04-14T18:57:34.622Z,42.40
2018-04-14T19:00:03.866Z,46.97
2018-04-14T19:02:33.059Z,46.57
2018-04-14T19:05:02.460Z,49.73
2018-04-14T19:07:31.821Z,51.73
2018-04-14T19:10:00.969Z,52.80
2018-04-14T19:12:30.329Z,49.27
2018-04-14T19:14:59.512Z,46.30
2018-04-14T19:17:28.694Z,53.70
2018-04-14T19:19:57.817Z,47.97
2018-04-14T19:22:26.819Z,50.33
2018-04-14T19:24:55.785Z,48.93
2018-04-14T19:27:24.788Z,51.33
2018-04-14T19:29:53.897Z,50.77
2018-04-14T19:32:22.985Z,51.37
2018-04-14T19:34:51.976Z,47.03
2018-04-14T19:37:21.032Z,41.27
2018-04-14T19:39:50.105Z,41.77
2018-04-14T19:42:19.217Z,39.13
2018-04-14T19:44:48.556Z,45.17
2018-04-14T19:47:17.803Z,39.87
2018-04-14T19:49:46.851Z,47.40
2018-04-14T19:52:16.094Z,43.10
2018-04-14T19:54:45.247Z,45.90
2018-04-14T19:57:14.397Z,40.47
2018-04-14T19:59:43.469Z,43.27
2018-04-14T20:02:12.612Z,44.20
2018-04-14T20:04:41.745Z,48.30
2018-04-14T20:07:11.022Z,45.83
2018-04-14T20:09:40.336Z,43.70
2018-04-14T20:12:09.588Z,52.63
2018-04-14T20:14:38.673Z,46.37
2018-04-14T20:17:07.861Z,51.00
2018-04-14T20:19:37.232Z,57.00
2018-04-14T20:22:06.539Z,55.60
2018-04-14T20:24:35.853Z,59.37
2018-04-14T20:27:05.257Z,59.33
2018-04-14T20:29:34.435Z,57.70
2018-04-14T20:32:03.487Z,60.00
2018-04-14T20:34:32.653Z,57.63
2018-04-14T20:37:01.981Z,52.87
2018-04-14T20:39:31.001Z,56.17
2018-04-14T20:42:00.528Z,51.97
2018-04-14T20:44:29.788Z,48.60
2018-04-14T20:46:58.936Z,43.70
2018-04-14T20:49:28.124Z,41.50
2018-04-14T20:51:57.286Z,41.37
2018-04-14T20:54:26.841Z,40.73
2018-04-14T20:56:56.019Z,39.67
2018-04-14T20:59:25.327Z,39.97
2018-04-14T21:01:54.325Z,43.37
2018-04-14T21:04:23.421Z,42.53
2018-04-14T21:06:52.571Z,38.60
2018-04-14T21:09:22.225Z,38.17
2018-04-14T21:11:51.273Z,44.43
2018-04-14T21:14:21.864Z,42.40
2018-04-14T21:16:51.055Z,37.93
2018-04-14T21:19:20.252Z,38.33
2018-04-14T21:21:49.347Z,35.93
2018-04-14T21:24:18.705Z,37.90
2018-04-14T21:26:48.020Z,41.00
2018-04-14T21:29:17.148Z,36.20
2018-04-14T21:31:46.209Z,39.03
2018-04-14T21:34:15.395Z,41.13
2018-04-14T21:36:44.535Z,33.17
2018-04-14T21:39:13.535Z,37.97
2018-04-14T21:41:42.584Z,37.37
2018-04-14T21:44:11.667Z,36.10
2018-04-14T21:46:40.716Z,35.03
2018-04-14T21:49:09.785Z,36.00
2018-04-14T21:51:38.915Z,37.53
2018-04-14T21:54:08.110Z,41.33
2018-04-14T21:56:37.260Z,32.40
2018-04-14T21:59:06.499Z,41.23
2018-04-14T22:01:35.600Z,38.57
2018-04-14T22:04:04.847Z,42.20
2018-04-14T22:06:33.766Z,42.37
2018-04-14T22:09:02.988Z,43.80
2018-04-14T22:11:32.161Z,41.90
2018-04-14T22:14:01.285Z,42.00
2018-04-14T22:16:30.220Z,48.20
2018-04-14T22:18:59.311Z,44.77
2018-04-14T22:21:28.249Z,45.53
2018-04-14T22:23:57.332Z,51.17
2018-04-14T22:26:26.473Z,54.23
2018-04-14T22:28:55.556Z,52.00
2018-04-14T22:31:24.532Z,50.23
2018-04-14T22:33:53.525Z,53.60
2018-04-14T22:36:22.694Z,51.93
2018-04-14T22:38:51.889Z,52.53
2018-04-14T22:41:20.968Z,54.40
2018-04-14T22:43:50.202Z,49.03
2018-04-14T22:46:19.491Z,47.23
2018-04-14T22:48:48.474Z,51.17
2018-04-14T22:51:17.728Z,50.73
2018-04-14T22:53:46.893Z,45.30
2018-04-14T22:56:16.081Z,46.40
2018-04-14T22:58:45.321Z,49.33
2018-04-14T23:01:14.724Z,46.40
2018-04-14T23:03:43.924Z,51.10
2018-04-14T23:06:13.168Z,41.50
2018-04-14T23:08:42.379Z,44.47
2018-04-14T23:11:11.620Z,46.87
2018-04-14T23:13:40.784Z,43.23
2018-04-14T23:16:09.981Z,41.97
2018-04-14T23:18:39.019Z,43.47
2018-04-14T23:21:08.072Z,39.20
2018-04-14T23:23:38.577Z,43.87
2018-04-14T23:26:09.209Z,39.37
2018-04-14T23:28:40.659Z,37.83
2018-04-14T23:31:11.961Z,43.53
2018-04-14T23:33:42.041Z,42.80
2018-04-14T23:36:11.079Z,43.40
2018-04-14T23:38:40.135Z,41.87
2018-04-14T23:41:09.394Z,41.50
2018-04-14T23:43:38.650Z,42.13
2018-04-14T23:46:07.888Z,39.40
2018-04-14T23:48:37.019Z,42.57
2018-04-14T23:51:06.229Z,37.10
2018-04-14T23:53:35.381Z,43.17
2018-04-14T23:56:04.684Z,41.63
2018-04-14T23:58:33.964Z,39.53
